createdAt,value
2023-01-26T00:03:19.278Z,37.83
2023-01-26T00:08:22.363Z,38.13
2023-01-26T00:13:26.622Z,37.27
2023-01-26T00:18:29.748Z,38.00
2023-01-26T00:23:34.315Z,36.97
2023-01-26T00:28:38.861Z,37.53
2023-01-26T00:33:41.823Z,38.23
2023-01-26T00:38:46.696Z,38.77
2023-01-26T00:43:51.119Z,38.53
2023-01-26T00:48:55.648Z,39.37
2023-01-26T00:53:58.656Z,39.90
2023-01-26T00:59:03.077Z,40.17
2023-01-26T01:04:06.152Z,38.73
2023-01-26T01:09:09.870Z,40.23
2023-01-26T01:14:14.741Z,37.63
2023-01-26T01:19:18.687Z,39.50
2023-01-26T01:24:21.869Z,38.50
2023-01-26T01:29:26.301Z,39.87
2023-01-26T01:34:29.326Z,40.23
2023-01-26T01:39:32.193Z,38.97
2023-01-26T01:44:38.658Z,40.47
2023-01-26T01:49:47.452Z,41.03
2023-01-26T01:54:55.753Z,41.37
2023-01-26T02:00:06.269Z,41.60
2023-01-26T02:05:25.584Z,41.07
2023-01-26T02:10:29.715Z,40.97
2023-01-26T02:15:34.162Z,42.30
2023-01-26T02:20:44.561Z,41.40
2023-01-26T02:26:06.103Z,39.73
2023-01-26T02:31:11.941Z,40.50
2023-01-26T02:36:20.518Z,41.63
2023-01-26T02:41:42.225Z,40.83
2023-01-26T02:46:45.132Z,42.03
2023-01-26T02:51:49.618Z,42.13
2023-01-26T02:56:54.503Z,40.73
2023-01-26T03:01:58.842Z,40.67
2023-01-26T03:07:01.799Z,40.73
2023-01-26T03:12:06.468Z,39.57
2023-01-26T03:17:09.615Z,40.20
2023-01-26T03:22:31.225Z,39.63
2023-01-26T03:27:42.918Z,40.00
2023-01-26T03:32:46.100Z,39.47
2023-01-26T03:37:54.947Z,40.20
2023-01-26T03:43:43.293Z,41.03
2023-01-26T03:49:04.094Z,40.73
2023-01-26T03:54:24.451Z,40.60
2023-01-26T03:59:39.167Z,40.17
2023-01-26T04:05:04.932Z,40.10
2023-01-26T04:10:11.875Z,40.83
2023-01-26T04:15:34.175Z,40.90
2023-01-26T04:20:55.582Z,38.17
2023-01-26T04:25:58.625Z,40.53
2023-01-26T04:31:04.638Z,39.40
2023-01-26T04:36:10.812Z,39.50
2023-01-26T04:41:18.219Z,47.13
2023-01-26T04:46:26.521Z,40.87
2023-01-26T04:51:29.615Z,39.50
2023-01-26T04:56:35.408Z,40.40
2023-01-26T05:01:40.925Z,39.87
2023-01-26T05:06:44.423Z,39.20
2023-01-26T05:11:47.663Z,39.67
2023-01-26T05:16:51.915Z,40.17
2023-01-26T05:22:00.245Z,39.73
2023-01-26T05:27:23.316Z,39.43
2023-01-26T05:32:31.672Z,38.97
2023-01-26T05:37:35.150Z,40.80
2023-01-26T05:42:39.780Z,41.17
2023-01-26T05:48:04.484Z,40.50
2023-01-26T05:53:07.723Z,39.03
2023-01-26T05:58:12.804Z,40.33
2023-01-26T06:03:18.095Z,40.23
2023-01-26T06:08:21.269Z,40.47
2023-01-26T06:13:32.531Z,40.20
2023-01-26T06:18:48.506Z,39.77
2023-01-26T06:23:51.769Z,40.43
2023-01-26T06:28:55.435Z,39.50
2023-01-26T06:34:00.430Z,40.33
2023-01-26T06:39:04.114Z,40.20
2023-01-26T06:44:07.208Z,40.67
2023-01-26T06:49:12.112Z,40.37
2023-01-26T06:54:16.393Z,40.27
2023-01-26T06:59:56.124Z,40.80
2023-01-26T07:05:22.234Z,41.00
2023-01-26T07:10:25.200Z,40.13
2023-01-26T07:15:36.730Z,42.20
2023-01-26T07:20:41.000Z,42.07
2023-01-26T07:25:44.677Z,41.90
2023-01-26T07:30:47.665Z,41.20
2023-01-26T07:35:53.932Z,41.83
2023-01-26T07:40:57.752Z,40.27
2023-01-26T07:46:00.649Z,47.77
2023-01-26T07:51:07.157Z,46.63
2023-01-26T07:56:12.054Z,42.00
2023-01-26T08:01:16.080Z,40.67
2023-01-26T08:06:21.097Z,43.00
2023-01-26T08:11:25.759Z,43.03
2023-01-26T08:16:28.853Z,42.00
2023-01-26T08:21:33.282Z,42.37
2023-01-26T08:26:36.437Z,42.10
2023-01-26T08:31:39.603Z,41.87
2023-01-26T08:36:43.890Z,42.10
2023-01-26T08:41:46.805Z,39.77
2023-01-26T08:46:49.766Z,40.37
2023-01-26T08:51:54.014Z,40.80
2023-01-26T08:56:56.918Z,41.10
2023-01-26T09:01:59.945Z,40.67
2023-01-26T09:07:05.892Z,40.23
2023-01-26T09:12:09.119Z,38.70
2023-01-26T09:17:12.163Z,38.23
2023-01-26T09:22:16.529Z,39.20
2023-01-26T09:27:19.507Z,39.33
2023-01-26T09:32:22.900Z,38.80
2023-01-26T09:37:27.246Z,38.07
2023-01-26T09:42:40.338Z,38.97
2023-01-26T09:48:02.954Z,38.50
2023-01-26T09:53:13.604Z,39.77
2023-01-26T09:58:20.875Z,39.37
2023-01-26T10:03:30.071Z,38.00
2023-01-26T10:08:34.548Z,37.60
2023-01-26T10:13:37.741Z,37.37
2023-01-26T10:18:51.076Z,34.73
2023-01-26T10:23:56.254Z,36.83
2023-01-26T10:28:59.624Z,34.60
2023-01-26T10:34:11.215Z,35.83
2023-01-26T10:39:17.271Z,36.47
2023-01-26T10:44:25.651Z,37.53
2023-01-26T10:49:28.712Z,37.57
2023-01-26T10:54:35.455Z,36.20
2023-01-26T10:59:43.614Z,37.80
2023-01-26T11:05:04.493Z,35.33
2023-01-26T11:10:36.986Z,35.43
2023-01-26T11:15:42.057Z,36.93
2023-01-26T11:20:50.085Z,36.97
2023-01-26T11:26:34.172Z,36.40
2023-01-26T11:31:47.185Z,38.43
2023-01-26T11:36:57.521Z,37.47
2023-01-26T11:42:21.431Z,36.43
2023-01-26T11:47:39.809Z,36.30
2023-01-26T11:52:52.060Z,36.77
2023-01-26T11:58:14.848Z,36.50
2023-01-26T12:03:24.199Z,36.70
2023-01-26T12:08:38.357Z,37.97
2023-01-26T12:13:47.088Z,35.70
2023-01-26T12:19:10.159Z,35.57
2023-01-26T12:24:48.376Z,32.83
2023-01-26T12:29:51.887Z,34.13
2023-01-26T12:34:55.013Z,34.47
2023-01-26T12:40:09.711Z,35.27
2023-01-26T12:45:19.377Z,36.10
2023-01-26T12:50:28.011Z,36.43
2023-01-26T12:55:35.795Z,33.50
2023-01-26T13:00:41.089Z,35.23
2023-01-26T13:05:57.204Z,36.63
2023-01-26T13:11:01.556Z,35.93
2023-01-26T13:16:33.697Z,35.57
2023-01-26T13:21:45.764Z,35.37
2023-01-26T13:26:50.767Z,34.80
2023-01-26T13:31:56.802Z,35.43
2023-01-26T13:37:12.734Z,34.90
2023-01-26T13:42:20.667Z,33.87
2023-01-26T13:47:30.388Z,34.43
2023-01-26T13:52:36.112Z,35.37
2023-01-26T13:57:39.089Z,35.33
2023-01-26T14:02:50.311Z,34.80
2023-01-26T14:07:54.406Z,35.03
2023-01-26T14:12:58.906Z,34.27
2023-01-26T14:18:05.439Z,33.57
2023-01-26T14:23:16.449Z,33.73
2023-01-26T14:28:23.287Z,33.50
2023-01-26T14:33:32.329Z,33.67
2023-01-26T14:38:43.953Z,33.97
2023-01-26T14:43:47.209Z,34.57
2023-01-26T14:48:58.849Z,33.80
2023-01-26T14:54:05.412Z,32.70
2023-01-26T14:59:10.468Z,33.70
2023-01-26T15:04:25.151Z,33.57
2023-01-26T15:09:33.928Z,32.67
2023-01-26T15:14:39.371Z,32.03
2023-01-26T15:19:53.554Z,32.23
2023-01-26T15:25:04.050Z,32.57
2023-01-26T15:30:16.862Z,32.20
2023-01-26T15:35:24.120Z,32.27
2023-01-26T15:40:30.137Z,31.33
2023-01-26T15:45:36.338Z,31.03
2023-01-26T15:50:41.906Z,32.23
2023-01-26T15:55:45.821Z,32.97
2023-01-26T16:00:49.022Z,30.40
2023-01-26T16:05:54.973Z,32.73
2023-01-26T16:10:59.753Z,32.40
2023-01-26T16:16:04.932Z,31.80
2023-01-26T16:21:20.080Z,32.43
2023-01-26T16:26:23.129Z,32.40
2023-01-26T16:31:29.479Z,31.90
2023-01-26T16:36:40.376Z,33.30
2023-01-26T16:41:43.619Z,32.70
2023-01-26T16:46:46.555Z,33.30
2023-01-26T16:51:50.935Z,33.33
2023-01-26T16:56:54.079Z,32.70
2023-01-26T17:01:57.622Z,33.07
2023-01-26T17:07:01.932Z,32.10
2023-01-26T17:12:05.372Z,32.20
2023-01-26T17:17:08.299Z,32.83
2023-01-26T17:22:12.816Z,32.77
2023-01-26T17:27:21.712Z,32.80
2023-01-26T17:32:51.782Z,31.83
2023-01-26T17:37:56.113Z,33.57
2023-01-26T17:43:01.182Z,32.27
2023-01-26T17:48:04.147Z,32.77
2023-01-26T17:53:08.545Z,33.57
2023-01-26T17:58:11.634Z,34.43
2023-01-26T18:03:20.924Z,33.27
2023-01-26T18:08:29.340Z,33.53
2023-01-26T18:13:41.357Z,33.43
2023-01-26T18:18:44.769Z,34.60
2023-01-26T18:23:52.933Z,33.83
2023-01-26T18:28:56.202Z,32.83
2023-01-26T18:34:00.568Z,33.20
2023-01-26T18:39:14.480Z,33.33
2023-01-26T18:44:22.835Z,34.43
2023-01-26T18:49:27.421Z,34.90
2023-01-26T18:54:32.272Z,34.23
2023-01-26T18:59:35.660Z,35.27
2023-01-26T19:04:41.218Z,34.13
2023-01-26T19:09:45.688Z,34.93
2023-01-26T19:15:14.193Z,38.70
2023-01-26T19:20:20.489Z,33.20
2023-01-26T19:25:32.071Z,34.10
2023-01-26T19:30:35.348Z,33.93
2023-01-26T19:35:45.911Z,33.23
2023-01-26T19:40:51.848Z,33.97
2023-01-26T19:46:11.721Z,34.23
2023-01-26T19:51:17.706Z,33.50
2023-01-26T19:56:24.090Z,33.27
2023-01-26T20:01:30.489Z,34.30
2023-01-26T20:06:35.729Z,33.90
2023-01-26T20:11:40.383Z,36.13
2023-01-26T20:16:43.739Z,33.80
2023-01-26T20:21:54.267Z,34.70
2023-01-26T20:26:58.808Z,33.37
2023-01-26T20:32:04.411Z,33.67
2023-01-26T20:37:23.903Z,34.37
2023-01-26T20:42:29.028Z,33.90
2023-01-26T20:47:33.971Z,34.23
2023-01-26T20:52:37.350Z,33.90
2023-01-26T20:57:50.527Z,33.67
2023-01-26T21:02:53.392Z,34.73
2023-01-26T21:07:56.243Z,35.07
2023-01-26T21:13:00.488Z,35.10
2023-01-26T21:18:04.097Z,35.43
2023-01-26T21:23:07.024Z,35.23
2023-01-26T21:28:11.380Z,36.33
2023-01-26T21:33:14.351Z,36.90
2023-01-26T21:38:17.218Z,35.80
2023-01-26T21:43:21.468Z,36.17
2023-01-26T21:48:35.617Z,37.73
2023-01-26T21:53:38.499Z,37.30
2023-01-26T21:58:56.040Z,36.47
2023-01-26T22:04:00.652Z,37.33
2023-01-26T22:09:03.685Z,38.40
2023-01-26T22:14:08.291Z,38.43
2023-01-26T22:19:12.386Z,36.83
2023-01-26T22:24:15.775Z,37.13
2023-01-26T22:29:20.243Z,38.17
2023-01-26T22:34:23.149Z,39.13
2023-01-26T22:39:26.056Z,38.67
2023-01-26T22:44:30.348Z,37.23
2023-01-26T22:49:33.230Z,37.70
2023-01-26T22:54:36.080Z,37.27
2023-01-26T22:59:40.284Z,37.27
2023-01-26T23:04:43.204Z,38.00
2023-01-26T23:09:46.094Z,37.60
2023-01-26T23:14:50.350Z,38.27
2023-01-26T23:19:53.792Z,38.40
2023-01-26T23:25:10.607Z,37.90
2023-01-26T23:30:15.417Z,38.30
2023-01-26T23:35:18.819Z,37.50
2023-01-26T23:40:21.710Z,37.80
2023-01-26T23:45:25.974Z,37.60
2023-01-26T23:50:29.316Z,38.07
2023-01-26T23:55:32.834Z,37.53
